Latest Weather Observations for Tasman Island

IDT60901

Issued at 7:41 am EST Wednesday 27 July 2016 (issued every 10 minutes, with the page automatically refreshed every 10 minutes)

About weather observations | Map of Hobart area stations | Latest observations for Hobart area | Other Formats
Station Details ID: 094155 Name: TASMAN ISLAND Lat: -43.24 Lon: 148.00 Height: 240.0 m
Data from the previous 72 hours. | See also: Recent months at Tasman Island
Date/Time
EST
Temp
°C
App
Temp
°C
Dew
Point
°C
Rel
Hum
%
Delta-T
°C
Wind Press
QNH
hPa
Press
MSL
hPa
Rain since
9am
mm
Dir  Spd
km/h
Gust
km/h
Spd
kts
Gust
kts
27/07:39am 4.2 -2.2 1.2 81 1.2 W 24 80 13 43 999.6 999.9 2.6
27/07:38am 4.3 -1.3 1.3 81 1.2 WSW 20 50 11 27 999.7 1000.0 2.6
27/07:30am 4.8 -0.1 1.8 81 1.2 WNW 17 44 9 24 999.2 999.5 2.6
27/07:00am 4.6 0.8 1.6 81 1.2 NNE 11 33 6 18 998.8 999.1 2.4
27/06:30am 5.2 0.2 1.5 77 1.5 W 17 57 9 31 997.9 998.1 2.2
27/06:00am 3.9 -0.8 0.9 81 1.2 SSW 15 48 8 26 997.5 997.7 2.2
27/05:30am 5.1 -2.8 1.2 76 1.6 SW 32 74 17 40 996.8 997.1 1.8
27/05:17am 5.6 -1.5 1.2 73 1.8 SW 28 65 15 35 996.4 996.7 1.8
27/05:00am 4.9 -1.0 1.4 78 1.4 WSW 22 57 12 31 996.5 996.8 1.8
27/04:31am 5.0 -1.8 2.9 86 0.9 WSW 28 65 15 35 995.6 995.9 1.4
27/04:30am 5.0 -1.5 2.9 86 0.9 WSW 26 65 14 35 995.5 995.8 1.4
27/04:00am 4.0 -4.6 2.8 92 0.5 SW 37 74 20 40 995.2 995.5 1.4
27/03:35am 4.8 -2.0 3.3 90 0.6 SW 28 56 15 30 994.6 994.8 1.0
27/03:30am 4.7 -1.3 3.4 91 0.5 SW 24 52 13 28 994.5 994.7 0.8
27/03:07am 5.0 -0.1 3.3 89 0.7 SE 19 57 10 31 994.0 994.2 0.6
27/03:00am 5.4 0.2 3.6 88 0.8 SW 20 82 11 44 993.7 993.9 0.6
27/02:42am 6.1 0.6 3.8 85 1.0 WNW 22 70 12 38 993.2 993.4 0.4
27/02:30am 6.5 -3.2 2.9 78 1.5 NW 43 72 23 39 992.8 993.0 0.0
27/02:02am 7.0 -2.6 1.3 67 2.3 NW 41 61 22 33 992.2 992.5 0.0
27/02:00am 6.9 -2.3 1.2 67 2.3 NW 39 54 21 29 992.2 992.5 0.0
27/01:30am 7.0 -2.2 1.1 66 2.4 NW 39 63 21 34 992.7 992.9 0.0
27/01:01am 6.9 -2.0 1.0 66 2.4 NW 37 57 20 31 992.9 993.1 0.0
27/01:00am 6.7 -1.8 1.0 67 2.3 NW 35 52 19 28 992.8 993.0 0.0
27/12:30am 6.1 -1.9 0.4 67 2.3 NNW 32 50 17 27 993.4 993.6 0.0
27/12:02am 6.2 -0.3 0.5 67 2.3 NNW 24 57 13 31 993.7 993.9 0.0
27/12:00am 6.2 0.1 0.5 67 2.3 NNW 22 52 12 28 993.9 994.1 0.0
 
Date/Time
EST
Temp
°C
App
Temp
°C
Dew
Point
°C
Rel
Hum
%
Delta-T
°C
Wind Press
QNH
hPa
Press
MSL
hPa
Rain since
9am
mm
Dir  Spd
km/h
Gust
km/h
Spd
kts
Gust
kts
26/11:30pm 5.9 -2.3 0.5 68 2.1 NNW 33 52 18 28 994.1 994.3 0.0
26/11:00pm 5.9 -2.4 0.0 66 2.3 NNW 33 63 18 34 994.5 994.7 0.0
26/10:30pm 5.8 -2.9 -0.3 65 2.4 NNW 35 59 19 32 994.7 994.9 0.0
26/10:00pm 5.3 -3.3 0.3 70 2.0 NNW 35 56 19 30 995.4 995.7 0.0
26/09:30pm 5.7 -4.6 0.3 68 2.1 NNW 44 69 24 37 995.6 995.9 0.0
26/09:00pm 5.1 -5.0 0.3 71 1.9 NNW 43 65 23 35 995.8 996.1 0.0
26/08:38pm 5.3 -5.8 0.3 70 2.0 NW 48 69 26 37 996.0 996.3 0.0
26/08:30pm 5.3 -4.4 0.5 71 1.9 NW 41 65 22 35 996.1 996.4 0.0
26/08:06pm 4.8 -2.8 0.8 75 1.6 NNW 30 52 16 28 996.6 996.9 0.0
26/08:00pm 4.8 -3.1 0.8 75 1.6 NW 32 46 17 25 996.8 997.1 0.0
26/07:30pm 5.9 -3.9 0.0 66 2.3 NW 41 59 22 32 996.8 997.1 0.0
26/07:00pm 5.9 -4.9 -0.4 64 2.5 NW 46 69 25 37 996.5 996.8 0.0
26/06:39pm 5.6 -4.1 0.2 68 2.1 NW 41 61 22 33 996.8 997.1 0.0
26/06:30pm 5.8 -3.2 0.4 68 2.1 NW 37 52 20 28 997.1 997.3 0.0
26/06:03pm 5.9 -1.4 0.0 66 2.3 NW 28 50 15 27 997.4 997.6 0.0
26/06:00pm 5.9 -0.1 0.9 70 2.0 NW 22 48 12 26 997.5 997.7 0.0
26/05:30pm 5.9 -2.9 1.2 72 1.9 WNW 37 59 20 32 997.2 997.4 0.0
26/05:03pm 5.9 0.5 1.2 72 1.9 WNW 19 56 10 30 997.4 997.6 0.0
26/05:00pm 6.2 1.6 1.7 73 1.9 WNW 15 46 8 25 997.5 997.7 0.0
26/04:52pm 6.1 0.7 1.2 71 2.0 WNW 19 48 10 26 997.5 997.7 0.0
26/04:30pm 6.3 -2.6 0.8 68 2.2 NW 37 61 20 33 997.3 997.5 0.0
26/04:07pm 6.9 -0.3 0.6 64 2.5 WNW 28 54 15 29 997.4 997.6 0.0
26/04:00pm 7.1 1.4 0.5 63 2.7 WNW 20 48 11 26 997.3 997.5 0.0
26/03:30pm 7.3 2.3 1.4 66 2.4 WNW 17 39 9 21 997.2 997.4 0.0
26/03:00pm 6.8 1.2 1.1 67 2.3 WNW 20 50 11 27 996.6 996.9 0.0
26/02:30pm 6.7 1.3 1.0 67 2.3 WNW 19 54 10 29 996.1 996.4 0.0
26/02:06pm 6.7 1.6 1.0 67 2.3 W 17 67 9 36 995.8 996.1 0.0
26/02:00pm 7.2 2.2 1.1 65 2.5 WNW 17 50 9 27 995.7 996.0 0.0
26/01:56pm 7.1 2.0 1.0 65 2.5 WNW 17 50 9 27 995.5 995.8 0.0
26/01:30pm 7.0 1.9 0.9 65 2.5 WNW 17 63 9 34 995.3 995.6 0.0
26/01:00pm 6.7 2.4 0.8 66 2.4 WNW 13 48 7 26 995.7 996.0 0.0
26/12:30pm 6.9 2.2 0.6 64 2.5 SSE 15 48 8 26 995.2 995.5 0.0
26/12:00pm 7.2 3.0 1.5 67 2.4 NW 13 48 7 26 995.2 995.5 0.0
26/11:30am 6.4 2.1 0.9 68 2.2 WSW 13 43 7 23 995.3 995.6 0.0
26/11:00am 5.8 -0.7 0.6 69 2.1 WNW 24 54 13 29 995.3 995.6 0.0
26/10:52am 5.7 -1.5 0.5 69 2.1 WNW 28 70 15 38 995.4 995.7 0.0
26/10:30am 5.6 -3.2 1.3 74 1.7 WNW 37 74 20 40 994.9 995.1 0.0
26/10:09am 5.1 -6.2 1.0 75 1.6 NW 50 89 27 48 994.8 995.0 0.0
26/10:00am 4.8 -5.8 0.8 75 1.6 NW 46 89 25 48 994.6 994.8 0.0
26/09:59am 5.0 -5.2 0.9 75 1.6 NW 44 82 24 44 994.7 994.9 0.0
26/09:33am 4.6 -7.2 0.7 76 1.5 NW 52 76 28 41 994.1 994.3 0.0
26/09:30am 4.5 -8.2 0.6 76 1.5 WNW 57 89 31 48 994.1 994.3 0.0
26/09:09am 4.1 -7.9 1.3 82 1.1 WNW 54 83 29 45 993.7 993.9 0.0
26/09:08am 4.1 -7.2 1.3 82 1.1 WNW 50 80 27 43 993.6 993.8 0.0
26/09:00am 4.3 -4.4 1.7 83 1.1 NW 37 70 20 38 993.5 993.7 2.2
26/08:30am 3.9 -7.5 0.8 80 1.2 NW 50 80 27 43 993.3 993.5 2.2
26/08:22am 3.7 -8.1 0.6 80 1.2 NW 52 76 28 41 993.7 993.9 2.2
26/08:05am 3.5 -3.5 1.7 88 0.7 NW 28 59 15 32 993.7 993.9 2.2
26/08:00am 3.4 -2.9 1.8 89 0.6 WNW 24 67 13 36 993.6 993.8 2.2
26/07:53am 3.0 -4.4 1.7 91 0.5 WNW 30 56 16 30 993.4 993.6 2.2
26/07:30am 2.7 -6.1 1.2 90 0.6 WNW 37 65 20 35 993.2 993.4 2.0
26/07:19am 3.0 -5.1 0.9 86 0.8 WNW 33 80 18 43 992.8 993.0 1.6
26/07:17am 3.1 -5.0 0.8 85 0.9 WNW 33 80 18 43 992.8 993.0 1.6
26/07:00am 3.3 -5.6 1.0 85 0.9 NW 37 72 20 39 992.2 992.5 1.6
26/06:30am 2.8 -6.0 1.5 91 0.5 WNW 37 65 20 35 991.5 991.7 1.6
26/06:00am 2.5 -6.4 1.0 90 0.6 NW 37 89 20 48 991.2 991.4 1.6
26/05:46am 3.7 -8.0 0.9 82 1.1 NW 52 96 28 52 990.9 991.1 0.8
26/05:30am 3.8 -6.1 1.8 87 0.8 NW 43 67 23 36 990.6 990.8 0.8
26/05:02am 3.0 -7.1 1.5 90 0.6 NW 44 63 24 34 990.2 990.4 0.8
26/05:00am 2.9 -7.6 1.4 90 0.6 NW 46 69 25 37 990.2 990.4 0.8
26/04:57am 2.9 -7.1 1.3 89 0.6 NW 43 69 23 37 990.1 990.3 0.8
26/04:30am 4.3 -3.2 1.5 82 1.1 WNW 30 69 16 37 989.5 989.7 0.2
26/04:11am 4.9 -1.5 1.0 76 1.5 WNW 24 56 13 30 988.7 988.9 0.0
26/04:09am 4.7 -1.4 0.7 75 1.6 WNW 22 56 12 30 988.8 989.0 0.0
26/04:00am 4.5 -4.4 0.6 76 1.5 NW 37 70 20 38 988.7 988.9 0.0
26/03:30am 4.6 -4.7 0.4 74 1.6 NW 39 72 21 39 987.9 988.1 0.0
26/03:00am 4.8 -4.9 0.6 74 1.7 NW 41 76 22 41 987.4 987.6 0.0
26/02:42am 4.9 -7.3 0.3 72 1.8 WNW 54 95 29 51 987.3 987.5 0.0
26/02:38am 5.0 -6.4 0.4 72 1.8 NW 50 95 27 51 987.5 987.7 0.0
26/02:37am 4.9 -6.1 0.5 73 1.7 NW 48 80 26 43 987.7 987.9 0.0
26/02:30am 5.0 -7.7 0.8 74 1.7 NW 57 91 31 49 987.4 987.6 0.0
26/02:00am 4.8 -9.4 0.6 74 1.7 NW 65 98 35 53 986.5 986.7 0.0
26/01:30am 5.0 -10.0 0.9 75 1.6 NW 69 89 37 48 986.1 986.3 0.0
26/01:22am 5.1 -6.6 0.9 74 1.7 NW 52 87 28 47 986.6 986.8 0.0
26/01:00am 5.4 -1.9 0.2 69 2.1 WNW 28 76 15 41 986.8 987.0 0.0
26/12:31am 5.5 -4.2 0.7 71 1.9 NW 41 74 22 40 986.7 986.9 0.0
26/12:30am 5.4 -4.3 0.4 70 2.0 WNW 41 74 22 40 986.7 986.9 0.0
26/12:00am 6.1 -1.8 1.1 70 2.0 WNW 32 65 17 35 986.7 986.9 0.0
 
Date/Time
EST
Temp
°C
App
Temp
°C
Dew
Point
°C
Rel
Hum
%
Delta-T
°C
Wind Press
QNH
hPa
Press
MSL
hPa
Rain since
9am
mm
Dir  Spd
km/h
Gust
km/h
Spd
kts
Gust
kts
25/11:42pm 6.3 0.2 0.6 67 2.3 WNW 22 61 12 33 986.2 986.4 0.0
25/11:36pm 6.4 -0.4 0.5 66 2.3 WNW 26 78 14 42 985.9 986.1 0.0
25/11:30pm 6.4 -1.2 0.7 67 2.3 WNW 30 78 16 42 985.8 986.0 0.0
25/11:28pm 6.5 -0.3 0.8 67 2.3 WNW 26 78 14 42 986.0 986.2 0.0
25/11:00pm 6.8 2.2 1.3 68 2.3 SW 15 44 8 24 985.4 985.6 0.0
25/10:30pm 7.4 2.8 1.7 67 2.4 WNW 15 50 8 27 985.2 985.4 0.0
25/10:20pm 7.8 -2.1 2.5 69 2.2 NW 44 85 24 46 984.8 985.0 0.0
25/10:00pm 7.8 -5.0 2.3 68 2.4 NW 59 87 32 47 984.8 985.0 0.0
25/09:55pm 7.6 -4.2 2.7 71 2.1 NW 54 87 29 47 984.9 985.1 0.0
25/09:30pm 7.5 -1.7 3.7 77 1.6 NNW 41 70 22 38 985.0 985.2 0.0
25/09:26pm 7.6 -1.9 3.8 77 1.7 NNW 43 82 23 44 985.0 985.2 0.0
25/09:00pm 8.0 -1.6 4.4 78 1.6 N 44 82 24 44 985.6 985.8 0.0
25/08:30pm 8.8 -2.1 3.6 70 2.3 N 50 76 27 41 986.2 986.4 0.0
25/08:00pm 8.7 -0.9 3.3 69 2.4 NNE 43 69 23 37 987.0 987.2 0.0
25/07:35pm 8.5 0.5 3.6 71 2.1 N 35 56 19 30 987.9 988.1 0.0
25/07:30pm 8.5 0.1 3.9 73 2.0 N 37 52 20 28 987.9 988.1 0.0
25/07:00pm 8.6 0.8 5.0 78 1.6 N 35 57 19 31 989.1 989.3 0.0
25/06:58pm 8.6 0.8 4.8 77 1.7 N 35 56 19 30 989.2 989.4 0.0
25/06:30pm 8.6 1.8 5.0 78 1.6 N 30 39 16 21 989.8 990.0 0.0
25/06:00pm 8.6 3.7 4.0 73 2.1 N 19 28 10 15 990.8 991.0 0.0
25/05:30pm 8.4 4.4 2.8 68 2.4 N 13 28 7 15 991.0 991.2 0.0
25/05:00pm 8.6 2.5 2.8 67 2.5 NNW 24 39 13 21 991.5 991.7 0.0
25/04:30pm 8.9 2.9 3.1 67 2.5 NNW 24 43 13 23 992.2 992.5 0.0
25/04:00pm 8.7 4.1 3.5 70 2.3 NNW 17 24 9 13 992.9 993.1 0.0
25/03:30pm 9.1 5.9 3.3 67 2.5 NNW 9 17 5 9 993.6 993.8 0.0
25/03:00pm 9.8 6.8 4.0 67 2.6 NW 9 15 5 8 994.0 994.2 0.0
25/02:30pm 9.6 6.7 4.4 70 2.3 NW 9 15 5 8 994.2 994.4 0.0
25/02:00pm 9.5 6.1 3.9 68 2.5 NW 11 17 6 9 994.6 994.8 0.0
25/01:30pm 9.4 5.5 3.4 66 2.6 WNW 13 20 7 11 995.0 995.2 0.0
25/01:00pm 10.1 5.9 3.6 64 2.9 WNW 15 22 8 12 995.4 995.7 0.0
25/12:30pm 10.4 6.9 3.7 63 3.0 WNW 11 17 6 9 996.0 996.3 0.0
25/12:00pm 9.2 4.9 3.0 65 2.7 WNW 15 28 8 15 996.5 996.8 0.0
25/11:30am 9.3 4.2 3.3 66 2.6 NW 19 30 10 16 997.1 997.3 0.0
25/11:00am 9.2 5.3 3.6 68 2.5 NW 13 19 7 10 997.4 997.6 0.0
25/10:30am 8.9 5.4 3.5 69 2.4 NW 11 19 6 10 997.5 997.7 0.0
25/10:00am 8.1 3.3 2.6 68 2.4 NW 17 24 9 13 997.5 997.7 0.0
25/09:30am 7.5 2.1 2.4 70 2.1 NNW 20 37 11 20 997.8 998.0 0.0
25/09:00am 7.5 2.1 2.2 69 2.2 NW 20 33 11 18 997.7 997.9 0.0
25/08:30am 7.6 2.2 2.3 69 2.2 NW 20 30 11 16 997.9 998.1 0.0
25/08:00am 7.0 2.6 2.5 73 1.9 NNW 15 26 8 14 997.9 998.1 0.0
25/07:30am 6.4 2.3 2.1 74 1.8 NNW 13 17 7 9 997.8 998.0 0.0
25/07:00am 7.6 2.1 2.1 68 2.3 NW 20 28 11 15 998.0 998.2 0.0
25/06:30am 7.4 2.0 2.3 70 2.1 NW 20 28 11 15 998.0 998.2 0.0
25/06:00am 7.4 2.1 2.1 69 2.2 NW 19 28 10 15 998.1 998.3 0.0
25/05:30am 6.6 1.3 1.9 72 1.9 NNW 19 33 10 18 998.1 998.3 0.0
25/05:00am 6.4 1.1 1.7 72 1.9 NW 19 30 10 16 998.3 998.5 0.0
25/04:30am 6.2 1.6 1.7 73 1.8 NNW 15 22 8 12 998.4 998.6 0.0
25/04:00am 6.2 0.9 1.7 73 1.9 NNW 19 33 10 18 998.2 998.4 0.0
25/03:30am 5.8 0.8 1.5 74 1.7 NNW 17 32 9 17 998.5 998.7 0.0
25/03:00am 5.6 0.9 1.2 73 1.8 NNW 15 28 8 15 998.8 999.1 0.0
25/02:30am 6.6 1.2 1.3 69 2.2 NW 19 30 10 16 998.8 999.1 0.0
25/02:00am 6.3 2.1 1.8 73 1.9 NNW 13 24 7 13 999.1 999.4 0.0
25/01:30am 5.6 1.7 1.2 73 1.8 NNW 11 20 6 11 999.2 999.5 0.0
25/01:00am 5.7 2.6 1.1 72 1.9 NNW 7 19 4 10 999.3 999.6 0.0
25/12:30am 6.5 0.8 0.8 67 2.3 NW 20 33 11 18 999.6 999.9 0.0
25/12:00am 6.2 1.1 0.9 69 2.1 NNW 17 32 9 17 999.8 1000.1 0.0
 
Date/Time
EST
Temp
°C
App
Temp
°C
Dew
Point
°C
Rel
Hum
%
Delta-T
°C
Wind Press
QNH
hPa
Press
MSL
hPa
Rain since
9am
mm
Dir  Spd
km/h
Gust
km/h
Spd
kts
Gust
kts
24/11:30pm 6.6 2.3 0.7 66 2.4 NNW 13 22 7 12 999.9 1000.2 0.0
24/11:00pm 6.9 1.4 0.4 63 2.6 NNW 19 30 10 16 1000.2 1000.5 0.0
24/10:30pm 6.9 2.8 0.1 62 2.7 NW 11 26 6 14 1000.4 1000.7 0.0
24/10:00pm 6.5 1.7 0.4 65 2.4 NW 15 26 8 14 1000.7 1001.0 0.0
24/09:30pm 6.5 2.5 0.8 67 2.3 NNW 11 22 6 12 1000.9 1001.2 0.0
24/09:00pm 5.9 0.8 0.9 70 2.0 NNW 17 24 9 13 1001.2 1001.5 0.0
24/08:30pm 5.7 1.1 1.4 74 1.7 N 15 22 8 12 1001.4 1001.6 0.0
24/08:00pm 5.9 0.0 1.6 74 1.8 N 22 30 12 16 1001.6 1001.8 0.0
24/07:30pm 6.0 -0.4 1.0 70 2.0 N 24 30 13 16 1001.9 1002.1 0.0
24/07:00pm 5.9 0.3 0.9 70 2.0 N 20 26 11 14 1002.0 1002.2 0.0
24/06:30pm 5.4 -0.1 0.6 71 1.9 N 19 24 10 13 1002.2 1002.5 0.0
24/06:00pm 5.4 1.0 0.4 70 2.0 NNW 13 24 7 13 1002.1 1002.3 0.0
24/05:30pm 5.6 1.2 0.2 68 2.1 NW 13 19 7 10 1002.0 1002.2 0.0
24/05:00pm 5.9 0.3 0.9 70 2.0 NW 20 26 11 14 1002.1 1002.3 0.0
24/04:30pm 6.2 1.5 0.9 69 2.1 NW 15 20 8 11 1002.3 1002.6 0.0
24/04:00pm 6.3 0.3 1.0 69 2.1 NW 22 32 12 17 1002.4 1002.7 0.0
24/03:30pm 6.8 1.8 1.5 69 2.2 NNW 17 26 9 14 1002.3 1002.6 0.0
24/03:00pm 7.5 2.4 0.9 63 2.7 NW 17 24 9 13 1002.2 1002.5 0.0
24/02:30pm 7.4 3.9 1.0 64 2.6 WNW 9 24 5 13 1002.1 1002.3 0.0
24/02:00pm 7.5 1.9 1.4 65 2.5 NW 20 30 11 16 1002.2 1002.5 0.0
24/01:30pm 7.1 1.6 1.6 68 2.3 NW 20 37 11 20 1002.5 1002.8 0.0
24/01:00pm 6.9 -0.6 1.2 67 2.3 NW 30 43 16 23 1002.6 1002.9 0.0
24/12:30pm 6.8 1.8 1.1 67 2.3 WNW 17 35 9 19 1002.9 1003.2 0.0
24/12:00pm 6.7 0.7 1.2 68 2.2 WNW 22 32 12 17 1003.2 1003.5 0.0
24/11:30am 6.5 2.7 1.6 71 2.0 NW 11 26 6 14 1003.4 1003.7 0.0
24/11:00am 6.3 2.5 1.6 72 1.9 W 11 35 6 19 1003.4 1003.7 0.0
24/10:30am 5.8 2.7 1.2 72 1.8 NW 7 35 4 19 1003.5 1003.8 0.0
24/10:00am 5.3 0.7 1.4 76 1.6 WNW 15 35 8 19 1003.5 1003.8 0.0
24/09:30am 4.8 0.8 0.8 75 1.6 W 11 32 6 17 1003.5 1003.8 0.0
24/09:00am 4.6 -1.2 0.2 73 1.7 WNW 20 44 11 24 1003.5 1003.8 16.2
24/08:30am 4.4 -1.7 0.4 75 1.6 WNW 22 39 12 21 1003.4 1003.7 16.2
24/08:00am 3.8 -3.9 0.0 76 1.5 NW 30 48 16 26 1003.4 1003.7 16.2
24/07:51am 4.1 -2.0 0.3 76 1.5 WNW 22 48 12 26 1003.4 1003.7 16.2
24/07:50am 4.2 -1.5 0.5 77 1.4 WNW 20 43 11 23 1003.4 1003.7 16.2

Latest Capital City Observations: Canberra | Sydney | Melbourne | Brisbane | Adelaide | Perth | Hobart | Darwin

Other Formats:

Comma delimited format used in spreadsheet applications
http://www.bom.gov.au/fwo/IDT60901/IDT60901.95986.axf

JavaScript Object Notation format (JSON) in row-major order
http://www.bom.gov.au/fwo/IDT60901/IDT60901.95986.json